createdAt,value
2023-05-08T00:00:59.928Z,70.70
2023-05-08T00:03:45.456Z,70.67
2023-05-08T00:06:30.989Z,71.10
2023-05-08T00:09:16.600Z,71.76
2023-05-08T00:12:02.017Z,71.18
2023-05-08T00:14:47.459Z,71.35
2023-05-08T00:17:33.081Z,71.44
2023-05-08T00:20:19.033Z,72.11
2023-05-08T00:23:04.553Z,71.88
2023-05-08T00:25:50.021Z,72.21
2023-05-08T00:28:35.623Z,72.69
2023-05-08T00:31:21.070Z,72.76
2023-05-08T00:34:06.501Z,72.73
2023-05-08T00:36:52.374Z,73.09
2023-05-08T00:39:37.957Z,73.62
2023-05-08T00:42:23.639Z,73.53
2023-05-08T00:45:09.501Z,74.09
2023-05-08T00:47:54.882Z,74.35
2023-05-08T00:50:40.885Z,74.29
2023-05-08T00:53:27.542Z,75.04
2023-05-08T00:56:15.148Z,75.00
2023-05-08T00:59:01.256Z,75.67
2023-05-08T01:01:47.723Z,75.84
2023-05-08T01:04:34.079Z,75.51
2023-05-08T01:07:19.857Z,75.83
2023-05-08T01:10:06.430Z,75.25
2023-05-08T01:13:04.843Z,75.90
2023-05-08T01:16:15.880Z,75.86
2023-05-08T01:19:37.677Z,75.81
2023-05-08T01:22:53.823Z,76.17
2023-05-08T01:26:11.759Z,75.98
2023-05-08T01:29:05.776Z,75.82
2023-05-08T01:32:22.277Z,75.47
2023-05-08T01:35:20.096Z,75.47
2023-05-08T01:38:30.771Z,75.46
2023-05-08T01:41:26.116Z,75.82
2023-05-08T01:44:20.896Z,75.76
2023-05-08T01:47:09.661Z,76.07
2023-05-08T01:50:07.193Z,76.16
2023-05-08T01:52:58.588Z,75.92
2023-05-08T01:55:47.100Z,75.85
2023-05-08T01:58:35.149Z,75.77
2023-05-08T02:01:26.584Z,75.99
2023-05-08T02:04:16.578Z,76.39
2023-05-08T02:07:03.265Z,76.68
2023-05-08T02:09:49.633Z,76.15
2023-05-08T02:12:37.266Z,76.27
2023-05-08T02:15:25.737Z,76.59
2023-05-08T02:18:12.807Z,76.48
2023-05-08T02:21:00.788Z,76.39
2023-05-08T02:23:48.066Z,76.08
2023-05-08T02:26:35.582Z,76.33
2023-05-08T02:29:23.149Z,76.19
2023-05-08T02:32:09.760Z,77.17
2023-05-08T02:35:03.252Z,76.64
2023-05-08T02:37:53.602Z,77.00
2023-05-08T02:40:52.771Z,76.98
2023-05-08T02:43:38.257Z,76.73
2023-05-08T02:46:43.803Z,76.57
2023-05-08T02:49:39.806Z,76.42
2023-05-08T02:53:00.955Z,75.83
2023-05-08T02:55:50.531Z,76.61
2023-05-08T02:59:03.209Z,76.94
2023-05-08T03:02:12.312Z,76.68
2023-05-08T03:05:05.342Z,76.95
2023-05-08T03:07:54.284Z,76.72
2023-05-08T03:10:43.086Z,77.16
2023-05-08T03:13:31.100Z,77.01
2023-05-08T03:16:22.938Z,76.98
2023-05-08T03:19:21.855Z,76.80
2023-05-08T03:22:10.061Z,77.19
2023-05-08T03:24:58.200Z,77.19
2023-05-08T03:27:45.019Z,77.49
2023-05-08T03:30:32.486Z,76.78
2023-05-08T03:33:25.491Z,76.96
2023-05-08T03:36:11.887Z,76.82
2023-05-08T03:38:57.610Z,77.30
2023-05-08T03:41:43.237Z,77.28
2023-05-08T03:44:30.484Z,76.96
2023-05-08T03:47:17.953Z,77.33
2023-05-08T03:50:03.887Z,77.38
2023-05-08T03:52:50.431Z,77.08
2023-05-08T03:55:36.338Z,77.08
2023-05-08T03:58:34.246Z,77.43
2023-05-08T04:01:41.711Z,77.37
2023-05-08T04:04:43.975Z,77.14
2023-05-08T04:07:50.693Z,77.55
2023-05-08T04:10:50.890Z,77.07
2023-05-08T04:13:43.156Z,77.56
2023-05-08T04:16:32.588Z,77.03
2023-05-08T04:19:27.270Z,77.36
2023-05-08T04:22:13.108Z,77.36
2023-05-08T04:25:01.338Z,77.66
2023-05-08T04:27:48.178Z,77.07
2023-05-08T04:30:33.398Z,77.38
2023-05-08T04:33:19.035Z,77.35
2023-05-08T04:36:04.542Z,77.35
2023-05-08T04:38:51.506Z,76.98
2023-05-08T04:41:36.886Z,76.27
2023-05-08T04:44:22.680Z,75.65
2023-05-08T04:47:08.156Z,75.67
2023-05-08T04:49:53.595Z,75.95
2023-05-08T04:52:38.841Z,75.75
2023-05-08T04:55:24.579Z,75.17
2023-05-08T04:58:10.929Z,74.37
2023-05-08T05:00:56.500Z,74.41
2023-05-08T05:03:41.729Z,74.55
2023-05-08T05:06:27.504Z,73.62
2023-05-08T05:09:12.533Z,72.78
2023-05-08T05:11:58.406Z,72.96
2023-05-08T05:14:44.042Z,72.62
2023-05-08T05:17:31.193Z,72.74
2023-05-08T05:20:16.797Z,72.30
2023-05-08T05:23:02.622Z,71.79
2023-05-08T05:25:47.717Z,71.20
2023-05-08T05:28:33.297Z,71.58
2023-05-08T05:31:19.397Z,71.18
2023-05-08T05:34:05.766Z,70.25
2023-05-08T05:36:51.253Z,70.33
2023-05-08T05:39:37.733Z,69.38
2023-05-08T05:42:23.537Z,68.84
2023-05-08T05:45:08.976Z,68.64
2023-05-08T05:47:54.416Z,68.07
2023-05-08T05:50:41.872Z,67.21
2023-05-08T05:53:28.040Z,66.95
2023-05-08T05:56:13.195Z,65.33
2023-05-08T05:58:58.639Z,63.97
2023-05-08T06:01:44.539Z,63.25
2023-05-08T06:04:30.074Z,63.08
2023-05-08T06:07:15.543Z,62.95
2023-05-08T06:10:01.021Z,62.94
2023-05-08T06:12:46.323Z,62.42
2023-05-08T06:15:34.102Z,61.82
2023-05-08T06:18:19.639Z,61.72
2023-05-08T06:21:05.221Z,61.69
2023-05-08T06:23:50.660Z,61.23
2023-05-08T06:26:36.037Z,60.67
2023-05-08T06:29:21.982Z,59.74
2023-05-08T06:32:07.320Z,59.50
2023-05-08T06:34:52.657Z,59.57
2023-05-08T06:37:37.842Z,58.85
2023-05-08T06:40:23.741Z,57.87
2023-05-08T06:43:08.996Z,56.82
2023-05-08T06:45:55.159Z,56.69
2023-05-08T06:48:40.206Z,56.12
2023-05-08T06:51:26.165Z,55.45
2023-05-08T06:54:11.772Z,54.90
2023-05-08T06:56:56.904Z,54.32
2023-05-08T06:59:42.350Z,53.87
2023-05-08T07:02:27.514Z,53.60
2023-05-08T07:05:13.181Z,52.60
2023-05-08T07:07:58.690Z,53.04
2023-05-08T07:10:43.756Z,52.89
2023-05-08T07:13:29.834Z,53.44
2023-05-08T07:16:15.782Z,52.48
2023-05-08T07:19:01.015Z,51.56
2023-05-08T07:21:46.373Z,51.56
2023-05-08T07:24:32.501Z,51.01
2023-05-08T07:27:17.663Z,50.01
2023-05-08T07:30:04.230Z,49.08
2023-05-08T07:32:50.543Z,47.92
2023-05-08T07:35:38.770Z,47.03
2023-05-08T07:38:24.238Z,46.80
2023-05-08T07:41:09.581Z,46.54
2023-05-08T07:43:54.805Z,46.08
2023-05-08T07:46:40.466Z,45.27
2023-05-08T07:49:25.860Z,45.16
2023-05-08T07:52:11.267Z,44.54
2023-05-08T07:54:56.696Z,44.45
2023-05-08T07:57:43.419Z,44.44
2023-05-08T08:00:29.626Z,43.70
2023-05-08T08:03:14.871Z,43.02
2023-05-08T08:06:00.142Z,43.23
2023-05-08T08:08:45.577Z,43.73
2023-05-08T08:11:30.845Z,44.10
2023-05-08T08:14:16.006Z,43.78
2023-05-08T08:17:01.611Z,43.87
2023-05-08T08:19:47.090Z,42.96
2023-05-08T08:22:32.384Z,42.90
2023-05-08T08:25:17.932Z,41.46
2023-05-08T08:28:03.130Z,41.03
2023-05-08T08:30:48.519Z,41.16
2023-05-08T08:33:33.559Z,40.75
2023-05-08T08:36:19.264Z,40.08
2023-05-08T08:39:04.687Z,38.79
2023-05-08T08:41:50.787Z,37.84
2023-05-08T08:44:36.125Z,38.26
2023-05-08T08:47:34.636Z,37.84
2023-05-08T08:50:21.956Z,38.45
2023-05-08T08:53:29.733Z,37.84
2023-05-08T08:56:16.572Z,37.85
2023-05-08T08:59:03.123Z,37.22
2023-05-08T09:01:53.701Z,37.24
2023-05-08T09:04:38.967Z,36.40
2023-05-08T09:07:24.438Z,35.96
2023-05-08T09:10:15.235Z,36.01
2023-05-08T09:13:00.656Z,36.47
2023-05-08T09:15:46.572Z,35.96
2023-05-08T09:18:31.761Z,36.04
2023-05-08T09:21:17.055Z,35.93
2023-05-08T09:24:04.207Z,35.44
2023-05-08T09:26:49.681Z,36.27
2023-05-08T09:29:35.064Z,35.90
2023-05-08T09:32:20.643Z,35.43
2023-05-08T09:35:07.682Z,36.04
2023-05-08T09:37:53.314Z,35.71
2023-05-08T09:40:39.582Z,35.72
2023-05-08T09:43:25.148Z,36.48
2023-05-08T09:46:24.248Z,36.26
2023-05-08T09:49:17.510Z,36.60
2023-05-08T09:52:03.038Z,36.46
2023-05-08T09:54:49.085Z,36.91
2023-05-08T09:57:39.799Z,37.11
2023-05-08T10:00:26.813Z,37.21
2023-05-08T10:03:12.263Z,35.92
2023-05-08T10:06:12.252Z,36.54
2023-05-08T10:09:07.173Z,35.77
2023-05-08T10:11:54.461Z,35.80
2023-05-08T10:14:39.505Z,35.47
2023-05-08T10:17:41.561Z,35.38
2023-05-08T10:20:30.069Z,35.15
2023-05-08T10:23:17.470Z,34.60
2023-05-08T10:26:14.237Z,34.45
2023-05-08T10:29:06.961Z,34.04
2023-05-08T10:31:56.364Z,33.66
2023-05-08T10:34:43.975Z,33.05
2023-05-08T10:37:30.052Z,33.05
2023-05-08T10:40:16.530Z,32.84
2023-05-08T10:43:03.163Z,33.07
2023-05-08T10:45:49.129Z,33.44
2023-05-08T10:48:47.944Z,33.49
2023-05-08T10:51:45.805Z,33.62
2023-05-08T10:54:37.516Z,33.84
2023-05-08T10:57:26.553Z,33.67
2023-05-08T11:00:12.540Z,33.25
2023-05-08T11:03:20.107Z,33.14
2023-05-08T11:06:16.945Z,32.73
2023-05-08T11:09:07.556Z,33.16
2023-05-08T11:15:41.888Z,32.15
2023-05-08T11:18:32.453Z,32.35
2023-05-08T11:21:28.185Z,32.70
2023-05-08T11:24:16.138Z,32.54
2023-05-08T11:30:36.801Z,32.18
2023-05-08T11:33:23.627Z,31.72
2023-05-08T11:36:16.936Z,32.03
2023-05-08T11:39:17.441Z,31.90
2023-05-08T11:42:25.111Z,31.92
2023-05-08T11:45:14.171Z,31.17
2023-05-08T11:48:01.812Z,30.24
2023-05-08T11:50:47.178Z,30.35
2023-05-08T11:53:32.714Z,30.42
2023-05-08T11:56:18.296Z,30.50
2023-05-08T11:59:08.732Z,30.97
2023-05-08T12:02:06.943Z,30.86
2023-05-08T12:04:54.510Z,30.35
2023-05-08T12:07:47.075Z,30.81
2023-05-08T12:10:32.560Z,30.28
2023-05-08T12:13:25.616Z,29.61
2023-05-08T12:16:11.315Z,30.05
2023-05-08T12:18:57.246Z,30.37
2023-05-08T12:21:49.130Z,30.24
2023-05-08T12:24:34.271Z,30.84
2023-05-08T12:27:19.704Z,30.48
2023-05-08T12:30:10.522Z,30.01
2023-05-08T12:32:56.324Z,30.25
2023-05-08T12:35:41.927Z,30.32
2023-05-08T12:38:27.916Z,30.21
2023-05-08T12:41:13.427Z,30.33
2023-05-08T12:43:58.631Z,30.18
2023-05-08T12:46:49.617Z,30.64
2023-05-08T12:49:35.017Z,30.68
2023-05-08T12:52:20.151Z,30.87
2023-05-08T12:55:05.755Z,30.79
2023-05-08T12:57:59.238Z,31.03
2023-05-08T13:00:49.896Z,30.44
2023-05-08T13:03:35.069Z,30.07
2023-05-08T13:06:23.281Z,30.08
2023-05-08T13:09:08.468Z,30.02
2023-05-08T13:11:53.590Z,30.58
2023-05-08T13:14:39.379Z,30.35
2023-05-08T13:17:24.571Z,29.69
2023-05-08T13:20:11.154Z,30.20
2023-05-08T13:22:56.769Z,30.00
2023-05-08T13:25:42.096Z,29.49
2023-05-08T13:28:27.263Z,30.09
2023-05-08T13:31:12.619Z,29.28
2023-05-08T13:33:58.074Z,29.72
2023-05-08T13:36:43.640Z,28.79
2023-05-08T13:39:28.935Z,29.04
2023-05-08T13:42:14.322Z,28.59
2023-05-08T13:44:59.653Z,28.76
2023-05-08T13:47:46.249Z,28.53
2023-05-08T13:50:31.695Z,27.78
2023-05-08T13:53:17.017Z,28.02
2023-05-08T13:56:02.575Z,28.24
2023-05-08T13:58:47.651Z,27.52
2023-05-08T14:01:32.860Z,26.96
2023-05-08T14:04:19.115Z,27.46
2023-05-08T14:07:04.558Z,27.29
2023-05-08T14:09:49.804Z,27.47
2023-05-08T14:12:38.100Z,26.82
2023-05-08T14:15:27.067Z,27.48
2023-05-08T14:18:19.901Z,26.98
2023-05-08T14:21:05.392Z,27.73
2023-05-08T14:23:50.651Z,27.52
2023-05-08T14:26:36.063Z,26.42
2023-05-08T14:29:21.367Z,26.60
2023-05-08T14:32:06.619Z,27.30
2023-05-08T14:34:51.913Z,26.59
2023-05-08T14:37:37.370Z,27.33
2023-05-08T14:40:24.504Z,26.68
2023-05-08T14:43:09.992Z,27.91
2023-05-08T14:45:55.678Z,28.27
2023-05-08T14:48:40.678Z,28.10
2023-05-08T14:51:26.644Z,27.84
2023-05-08T14:54:11.941Z,27.57
2023-05-08T14:56:57.223Z,27.99
2023-05-08T15:02:48.351Z,28.60
2023-05-08T15:05:33.959Z,27.18
2023-05-08T15:08:19.383Z,27.72
2023-05-08T15:11:04.537Z,27.28
2023-05-08T15:13:49.972Z,27.29
2023-05-08T15:16:35.499Z,27.65
2023-05-08T15:19:20.879Z,27.46
2023-05-08T15:22:06.219Z,27.17
2023-05-08T15:24:51.425Z,27.07
2023-05-08T15:27:36.806Z,26.99
2023-05-08T15:30:22.179Z,25.85
2023-05-08T15:33:07.261Z,26.76
2023-05-08T15:35:53.813Z,27.47
2023-05-08T15:38:39.893Z,27.22
2023-05-08T15:41:25.500Z,27.90
2023-05-08T15:44:10.991Z,28.21
2023-05-08T15:46:56.366Z,28.09
2023-05-08T15:49:41.813Z,28.46
2023-05-08T15:52:27.213Z,28.54
2023-05-08T15:55:12.848Z,29.38
2023-05-08T15:57:58.348Z,28.97
2023-05-08T16:00:45.519Z,28.55
2023-05-08T16:03:31.985Z,27.49
2023-05-08T16:06:17.352Z,27.43
2023-05-08T16:09:02.824Z,27.42
2023-05-08T16:11:48.151Z,27.65
2023-05-08T16:14:33.346Z,27.98
2023-05-08T16:17:19.677Z,28.37
2023-05-08T16:20:05.718Z,28.08
2023-05-08T16:22:55.784Z,27.81
2023-05-08T16:25:41.122Z,27.80
2023-05-08T16:28:26.772Z,28.19
2023-05-08T16:31:12.048Z,27.67
2023-05-08T16:33:57.328Z,27.45
2023-05-08T16:36:42.616Z,27.97
2023-05-08T16:39:27.840Z,28.16
2023-05-08T16:42:13.126Z,29.60
2023-05-08T16:44:58.266Z,29.96
2023-05-08T16:47:43.726Z,30.31
2023-05-08T16:50:29.109Z,30.13
2023-05-08T16:53:14.249Z,30.32
2023-05-08T16:55:59.769Z,30.45
2023-05-08T16:58:45.054Z,30.31
2023-05-08T17:01:30.335Z,29.88
2023-05-08T17:04:15.692Z,29.56
2023-05-08T17:07:00.682Z,30.00
2023-05-08T17:09:49.159Z,30.75
2023-05-08T17:12:34.609Z,30.23
2023-05-08T17:15:19.723Z,30.31
2023-05-08T17:18:05.236Z,30.68
2023-05-08T17:20:50.782Z,31.16
2023-05-08T17:23:36.231Z,30.97
2023-05-08T17:26:22.850Z,31.28
2023-05-08T17:29:08.200Z,31.33
2023-05-08T17:31:55.228Z,31.36
2023-05-08T17:34:40.358Z,31.62
2023-05-08T17:37:26.097Z,31.76
2023-05-08T17:40:11.625Z,31.84
2023-05-08T17:42:59.039Z,32.15
2023-05-08T17:45:45.462Z,31.96
2023-05-08T17:48:30.772Z,31.98
2023-05-08T17:51:15.983Z,31.68
2023-05-08T17:54:01.381Z,31.83
2023-05-08T17:56:49.207Z,31.36
2023-05-08T17:59:34.659Z,31.00
2023-05-08T18:02:19.874Z,30.75
2023-05-08T18:05:05.326Z,31.17
2023-05-08T18:07:50.807Z,30.84
2023-05-08T18:10:36.467Z,31.21
2023-05-08T18:13:21.744Z,31.30
2023-05-08T18:16:06.764Z,31.22
2023-05-08T18:18:55.040Z,31.29
2023-05-08T18:21:40.685Z,31.73
2023-05-08T18:24:26.295Z,32.02
2023-05-08T18:27:11.669Z,32.35
2023-05-08T18:29:56.830Z,33.04
2023-05-08T18:32:42.611Z,33.24
2023-05-08T18:35:28.155Z,33.45
2023-05-08T18:38:13.731Z,33.58
2023-05-08T18:41:02.008Z,34.08
2023-05-08T18:43:47.542Z,33.79
2023-05-08T18:46:33.119Z,34.19
2023-05-08T18:49:18.645Z,33.75
2023-05-08T18:52:04.151Z,33.91
2023-05-08T18:54:49.472Z,34.11
2023-05-08T18:57:34.909Z,34.48
2023-05-08T19:00:20.699Z,34.33
2023-05-08T19:03:06.375Z,34.64
2023-05-08T19:05:53.785Z,34.40
2023-05-08T19:08:39.729Z,34.74
2023-05-08T19:11:26.032Z,34.76
2023-05-08T19:14:11.540Z,34.88
2023-05-08T19:16:58.493Z,34.77
2023-05-08T19:19:44.662Z,35.29
2023-05-08T19:22:30.833Z,34.97
2023-05-08T19:25:16.374Z,35.40
2023-05-08T19:28:01.553Z,35.96
2023-05-08T19:30:47.101Z,36.06
2023-05-08T19:33:32.277Z,36.49
2023-05-08T19:36:18.400Z,36.73
2023-05-08T19:39:03.675Z,36.81
2023-05-08T19:41:48.757Z,36.83
2023-05-08T19:44:34.207Z,37.16
2023-05-08T19:47:19.191Z,37.48
2023-05-08T19:50:06.213Z,37.97
2023-05-08T19:52:51.706Z,38.63
2023-05-08T19:55:36.998Z,38.77
2023-05-08T19:58:22.214Z,39.37
2023-05-08T20:01:07.734Z,39.41
2023-05-08T20:03:53.749Z,40.06
2023-05-08T20:06:39.237Z,40.01
2023-05-08T20:09:24.445Z,40.58
2023-05-08T20:12:09.813Z,40.67
2023-05-08T20:14:55.343Z,40.98
2023-05-08T20:17:40.620Z,41.21
2023-05-08T20:20:27.157Z,41.83
2023-05-08T20:23:12.472Z,41.97
2023-05-08T20:25:57.900Z,42.28
2023-05-08T20:28:44.100Z,41.76
2023-05-08T20:31:30.653Z,42.14
2023-05-08T20:34:16.085Z,42.56
2023-05-08T20:37:02.102Z,42.83
2023-05-08T20:39:47.377Z,42.98
2023-05-08T20:42:32.811Z,43.21
2023-05-08T20:45:18.318Z,43.17
2023-05-08T20:48:04.149Z,43.21
2023-05-08T20:50:49.387Z,43.59
2023-05-08T20:53:34.656Z,43.78
2023-05-08T20:56:20.119Z,43.99
2023-05-08T20:59:05.529Z,44.17
2023-05-08T21:01:51.222Z,44.38
2023-05-08T21:04:36.503Z,44.73
2023-05-08T21:07:24.703Z,44.70
2023-05-08T21:10:10.045Z,44.85
2023-05-08T21:12:58.485Z,44.89
2023-05-08T21:15:43.938Z,45.22
2023-05-08T21:18:29.234Z,45.46
2023-05-08T21:21:16.540Z,45.67
2023-05-08T21:24:01.946Z,45.76
2023-05-08T21:26:47.463Z,45.88
2023-05-08T21:29:32.761Z,46.00
2023-05-08T21:32:18.164Z,46.47
2023-05-08T21:35:03.569Z,46.75
2023-05-08T21:37:53.250Z,46.84
2023-05-08T21:40:40.290Z,47.07
2023-05-08T21:43:25.677Z,47.26
2023-05-08T21:46:11.019Z,47.26
2023-05-08T21:48:56.205Z,47.23
2023-05-08T21:51:41.214Z,47.42
2023-05-08T21:54:26.684Z,47.64
2023-05-08T21:57:11.619Z,47.92
2023-05-08T21:59:57.038Z,47.93
2023-05-08T22:02:42.322Z,48.00
2023-05-08T22:05:27.426Z,48.72
2023-05-08T22:08:12.702Z,48.46
2023-05-08T22:10:57.857Z,48.92
2023-05-08T22:13:43.125Z,48.81
2023-05-08T22:16:29.072Z,48.68
2023-05-08T22:19:14.338Z,48.99
2023-05-08T22:21:59.672Z,48.96
2023-05-08T22:24:44.773Z,49.44
2023-05-08T22:27:29.857Z,49.25
2023-05-08T22:30:15.236Z,49.53
2023-05-08T22:33:00.879Z,49.80
2023-05-08T22:35:46.030Z,50.04
2023-05-08T22:38:31.264Z,50.17
2023-05-08T22:41:16.630Z,50.09
2023-05-08T22:44:02.019Z,50.11
2023-05-08T22:46:47.403Z,50.58
2023-05-08T22:49:33.550Z,50.60
2023-05-08T22:52:18.784Z,50.66
2023-05-08T22:55:05.168Z,50.73
2023-05-08T22:57:50.569Z,51.22
2023-05-08T23:00:35.935Z,50.99
2023-05-08T23:03:21.437Z,51.38
2023-05-08T23:06:06.863Z,51.85
2023-05-08T23:08:52.040Z,51.52
2023-05-08T23:11:37.347Z,52.29
2023-05-08T23:14:22.797Z,52.12
2023-05-08T23:17:08.343Z,52.16
2023-05-08T23:19:53.491Z,52.33
2023-05-08T23:22:38.982Z,52.78
2023-05-08T23:25:24.503Z,53.18
2023-05-08T23:28:09.856Z,53.55
2023-05-08T23:30:55.412Z,53.77
2023-05-08T23:33:40.900Z,53.36
2023-05-08T23:36:26.963Z,53.57
2023-05-08T23:39:12.425Z,53.66
2023-05-08T23:41:57.891Z,54.53
2023-05-08T23:44:43.149Z,54.08
2023-05-08T23:47:28.914Z,53.94
2023-05-08T23:50:14.128Z,54.58
2023-05-08T23:52:59.625Z,54.59
2023-05-08T23:55:44.830Z,54.53
2023-05-08T23:58:30.203Z,54.40
